Time;durP1;ratioP1;P1;durP2;ratioP2;P2;SDS_P1;SDS_P2;PMS_P1;PMS_P2;Temp;Humidity;BMP_temperature;BMP_pressure;BME280_temperature;BME280_humidity;BME280_pressure;Samples;Min_cycle;Max_cycle;Signal;HPM_P1;HPM_P2
2023/07/08 00:01:15;;;;;;;;;16.20;15.20;;;;;19.33;51.09;99759.47;5122274;27;9983;-73
2023/07/08 00:03:47;;;;;;;;;11.80;11.80;;;;;19.41;50.61;99751.91;5142347;27;8870;-73
2023/07/08 00:06:20;;;;;;;;;15.80;14.40;;;;;19.54;50.25;99756.59;5136459;27;8880;-71
2023/07/08 00:08:50;;;;;;;;;13.80;12.80;;;;;19.48;50.40;99753.28;5136594;27;9647;-71
2023/07/08 00:11:19;;;;;;;;;13.00;12.20;;;;;19.48;50.22;99747.97;5134534;27;8848;-73
2023/07/08 00:13:48;;;;;;;;;18.40;15.80;;;;;19.67;49.87;99747.84;5123273;27;8926;-72
2023/07/08 00:16:19;;;;;;;;;13.00;12.80;;;;;19.86;49.31;99742.34;5133645;27;8820;-72
2023/07/08 00:18:49;;;;;;;;;14.40;14.40;;;;;20.07;48.57;99745.56;5116237;27;8850;-73
2023/07/08 00:21:19;;;;;;;;;16.40;16.00;;;;;19.98;48.64;99740.75;5147898;27;8841;-73
2023/07/08 00:23:50;;;;;;;;;11.80;11.80;;;;;20.08;48.50;99746.44;5112199;27;9025;-71
2023/07/08 00:26:22;;;;;;;;;15.00;14.40;;;;;20.18;48.36;99746.75;5112554;27;8845;-73
2023/07/08 00:28:52;;;;;;;;;9.40;7.80;;;;;19.87;49.20;99745.84;5123034;27;8825;-72
2023/07/08 00:31:23;;;;;;;;;13.60;13.60;;;;;19.57;49.46;99743.94;5145064;27;8847;-71
2023/07/08 00:33:56;;;;;;;;;19.00;17.00;;;;;19.24;50.32;99739.50;5131660;27;8866;-70
2023/07/08 00:36:28;;;;;;;;;14.60;14.20;;;;;19.11;50.62;99744.63;5132738;27;8851;-71
2023/07/08 00:38:58;;;;;;;;;15.40;14.60;;;;;19.18;51.06;99738.94;5140827;27;8871;-74
2023/07/08 00:41:31;;;;;;;;;13.20;12.80;;;;;18.70;52.48;99739.63;5125274;27;8861;-71
2023/07/08 00:44:02;;;;;;;;;13.00;13.00;;;;;18.59;52.95;99741.13;5130002;27;8871;-76
2023/07/08 00:46:42;;;;;;;;;16.00;15.60;;;;;18.25;54.10;99737.50;5118811;27;8847;-75
2023/07/08 00:49:27;;;;;;;;;16.20;15.00;;;;;18.04;54.70;99745.59;5129648;27;8841;-74
2023/07/08 00:51:57;;;;;;;;;15.60;13.60;;;;;17.86;55.58;99738.50;5144970;27;8863;-76
2023/07/08 00:54:26;;;;;;;;;17.40;15.60;;;;;17.75;55.76;99744.31;5119753;27;9995;-74
2023/07/08 00:57:00;;;;;;;;;17.00;15.00;;;;;17.90;55.99;99738.25;5117060;27;9672;-72
2023/07/08 00:59:32;;;;;;;;;16.40;15.80;;;;;18.09;55.57;99738.25;5114672;27;8819;-74
2023/07/08 01:02:05;;;;;;;;;17.60;16.60;;;;;18.16;55.58;99731.69;5117926;27;8883;-72
2023/07/08 01:04:38;;;;;;;;;15.40;15.40;;;;;18.44;54.97;99726.78;5128734;27;8834;-71
2023/07/08 01:07:10;;;;;;;;;20.00;18.80;;;;;18.60;54.89;99735.72;5125996;27;8851;-73
2023/07/08 01:09:42;;;;;;;;;18.00;16.20;;;;;18.65;55.34;99739.00;5111543;27;8867;-73
2023/07/08 01:12:16;;;;;;;;;19.40;17.40;;;;;18.89;55.03;99741.34;5122057;27;8935;-75
2023/07/08 01:14:46;;;;;;;;;21.20;19.00;;;;;19.03;54.96;99736.19;5118605;27;8835;-74
2023/07/08 01:17:14;;;;;;;;;21.00;17.80;;;;;19.19;54.47;99741.53;5136640;27;8853;-73
2023/07/08 01:19:45;;;;;;;;;18.40;17.80;;;;;19.35;54.11;99733.59;5143992;27;8849;-75
2023/07/08 01:22:15;;;;;;;;;18.80;18.80;;;;;19.36;54.18;99731.78;5111723;27;8853;-73
2023/07/08 01:24:45;;;;;;;;;16.40;15.60;;;;;19.44;54.18;99734.88;5134884;27;8819;-74
2023/07/08 01:27:17;;;;;;;;;18.40;17.00;;;;;19.52;54.38;99730.88;5131968;27;8931;-73
2023/07/08 01:29:47;;;;;;;;;16.60;16.40;;;;;19.62;53.75;99738.38;5112673;27;8829;-74
2023/07/08 01:32:17;;;;;;;;;18.80;17.20;;;;;19.42;54.13;99732.28;5111076;27;8853;-74
2023/07/08 01:34:59;;;;;;;;;20.00;18.60;;;;;19.60;53.89;99721.59;5129456;27;8933;-73
2023/07/08 01:37:35;;;;;;;;;16.80;16.80;;;;;19.63;53.98;99730.28;5127343;27;8833;-75
2023/07/08 01:40:32;;;;;;;;;20.60;20.40;;;;;19.68;53.55;99728.22;5128483;27;9579;-74
2023/07/08 01:43:02;;;;;;;;;19.60;17.40;;;;;19.57;53.66;99724.44;5039623;28;8842;-72
2023/07/08 01:45:35;;;;;;;;;18.80;17.80;;;;;19.62;53.98;99725.03;5033361;28;8868;-75
2023/07/08 01:48:08;;;;;;;;;17.80;16.80;;;;;19.66;53.68;99724.78;5066035;28;9054;-74
2023/07/08 01:50:41;;;;;;;;;21.20;21.20;;;;;19.61;53.95;99729.53;5066128;28;8926;-74
2023/07/08 01:53:15;;;;;;;;;18.40;17.00;;;;;19.63;53.88;99724.06;5031584;28;9106;-75
2023/07/08 01:55:45;;;;;;;;;19.00;18.20;;;;;19.60;53.60;99735.78;5049230;28;8921;-72
2023/07/08 01:58:14;;;;;;;;;18.60;18.40;;;;;19.62;53.60;99727.72;5048733;28;8867;-74
2023/07/08 02:00:43;;;;;;;;;18.80;18.20;;;;;19.61;53.62;99729.53;5045652;28;8828;-73
2023/07/08 02:03:12;;;;;;;;;18.00;14.60;;;;;19.54;53.81;99740.59;5029199;28;8855;-74
2023/07/08 02:05:41;;;;;;;;;14.60;14.60;;;;;19.42;54.32;99742.09;5029232;28;8884;-72
2023/07/08 02:08:11;;;;;;;;;20.00;20.00;;;;;19.44;53.84;99743.75;5013212;28;8847;-74
2023/07/08 02:10:42;;;;;;;;;18.00;17.20;;;;;19.41;54.15;99746.56;5040782;28;8821;-72
2023/07/08 02:13:11;;;;;;;;;17.80;16.00;;;;;19.38;53.94;99748.53;5032138;28;8849;-72
2023/07/08 02:15:40;;;;;;;;;21.40;19.00;;;;;19.28;54.13;99742.84;5070912;28;8841;-74
2023/07/08 02:18:09;;;;;;;;;17.40;17.00;;;;;19.18;53.86;99738.94;5032594;27;8859;-75
2023/07/08 02:20:38;;;;;;;;;19.00;17.60;;;;;19.15;53.61;99742.66;5131910;27;8838;-72
2023/07/08 02:23:06;;;;;;;;;17.60;15.20;;;;;19.04;53.48;99745.03;5131666;27;9604;-73
2023/07/08 02:25:37;;;;;;;;;18.80;17.00;;;;;18.83;54.56;99747.88;5131499;27;8858;-74
2023/07/08 02:28:06;;;;;;;;;17.40;16.20;;;;;18.86;53.83;99736.22;5129926;27;8874;-74
2023/07/08 02:30:35;;;;;;;;;18.80;17.20;;;;;18.85;54.16;99738.00;5114350;27;8855;-71
2023/07/08 02:33:04;;;;;;;;;18.20;17.40;;;;;18.83;53.96;99728.38;5149522;27;8851;-75
2023/07/08 02:35:33;;;;;;;;;18.40;18.00;;;;;18.45;54.68;99737.34;5131526;27;8839;-74
2023/07/08 02:38:01;;;;;;;;;22.60;18.40;;;;;18.19;55.39;99741.31;5131447;27;8871;-73
2023/07/08 02:40:31;;;;;;;;;22.40;19.40;;;;;17.86;56.67;99738.50;5113795;27;8874;-74
2023/07/08 02:43:01;;;;;;;;;21.80;20.80;;;;;17.80;56.69;99744.97;5132173;27;8847;-73
2023/07/08 02:45:30;;;;;;;;;17.80;17.80;;;;;17.76;56.60;99748.72;5091767;27;8818;-73
2023/07/08 02:47:58;;;;;;;;;21.80;20.00;;;;;17.76;56.62;99748.72;5109587;27;8861;-74
2023/07/08 02:50:27;;;;;;;;;16.80;16.80;;;;;17.86;56.51;99751.78;5093705;27;8821;-74
2023/07/08 02:52:56;;;;;;;;;19.60;18.80;;;;;17.94;56.49;99755.78;5129136;27;8841;-73
2023/07/08 02:55:25;;;;;;;;;22.40;21.40;;;;;18.13;56.11;99749.63;5128728;27;8829;-74
2023/07/08 02:57:54;;;;;;;;;17.20;17.20;;;;;18.23;55.91;99750.91;5076101;27;9622;-72
2023/07/08 03:00:24;;;;;;;;;20.20;18.00;;;;;18.30;55.83;99765.59;5127508;27;8852;-72
2023/07/08 03:02:53;;;;;;;;;18.60;18.40;;;;;18.42;55.51;99755.28;5092682;27;8876;-75
2023/07/08 03:05:22;;;;;;;;;20.00;18.80;;;;;18.45;55.35;99758.66;5109670;27;9571;-73
2023/07/08 03:07:51;;;;;;;;;19.00;18.60;;;;;18.45;55.13;99769.31;5110871;27;9676;-74
2023/07/08 03:10:20;;;;;;;;;18.00;16.20;;;;;18.52;54.87;99759.22;5113097;27;8863;-76
2023/07/08 03:12:48;;;;;;;;;19.40;19.40;;;;;18.37;54.79;99765.31;5114244;27;8844;-74
2023/07/08 03:15:18;;;;;;;;;22.40;20.60;;;;;18.28;55.26;99764.81;5121798;27;9660;-74
2023/07/08 03:17:49;;;;;;;;;18.80;18.40;;;;;18.40;54.80;99762.47;5113934;27;8857;-75
2023/07/08 03:20:18;;;;;;;;;23.00;20.00;;;;;18.20;55.04;99768.81;5146859;27;8895;-71
2023/07/08 03:22:46;;;;;;;;;33.20;31.00;;;;;18.16;54.98;99770.75;5152999;27;9640;-74
2023/07/08 03:25:19;;;;;;;;;26.00;22.20;;;;;18.25;55.19;99775.63;5134168;27;8874;-71
2023/07/08 03:27:51;;;;;;;;;19.60;18.20;;;;;18.35;55.11;99776.88;5134454;27;8975;-72
2023/07/08 03:30:20;;;;;;;;;20.20;19.20;;;;;18.39;55.03;99771.41;5134171;27;8859;-74
2023/07/08 03:32:51;;;;;;;;;18.40;16.60;;;;;18.55;54.79;99769.69;5134223;27;8869;-74
2023/07/08 03:35:21;;;;;;;;;18.40;18.40;;;;;18.65;54.04;99764.78;5134017;27;8847;-73
2023/07/08 03:37:50;;;;;;;;;18.20;17.00;;;;;18.67;54.11;99770.91;5118797;27;8829;-73
2023/07/08 03:40:20;;;;;;;;;21.80;21.60;;;;;18.50;54.17;99774.41;5130679;27;8829;-75
2023/07/08 03:42:49;;;;;;;;;23.80;22.40;;;;;18.69;53.99;99780.50;5132025;27;8960;-71
2023/07/08 03:45:18;;;;;;;;;19.40;18.20;;;;;18.83;53.90;99782.50;5130816;27;8822;-75
2023/07/08 03:47:47;;;;;;;;;21.40;19.00;;;;;18.82;53.29;99790.56;5067762;28;8898;-73
2023/07/08 03:50:21;;;;;;;;;21.00;20.00;;;;;18.93;53.51;99798.84;5051427;28;8852;-74
2023/07/08 03:52:52;;;;;;;;;17.20;17.20;;;;;19.05;53.16;99792.06;5051180;28;8840;-78
2023/07/08 03:55:23;;;;;;;;;21.40;19.20;;;;;18.69;53.38;99796.50;5066630;28;9771;-74
2023/07/08 03:57:52;;;;;;;;;25.40;25.40;;;;;18.71;53.38;99799.94;5034369;28;8864;-74
2023/07/08 04:00:22;;;;;;;;;22.60;21.60;;;;;18.81;53.00;99807.50;5050610;28;8864;-74
2023/07/08 04:02:50;;;;;;;;;19.40;17.80;;;;;18.47;53.67;99815.34;5050620;28;8909;-72
2023/07/08 04:05:24;;;;;;;;;15.60;15.60;;;;;18.73;53.35;99800.72;5050858;28;8836;-73
2023/07/08 04:07:54;;;;;;;;;19.40;19.20;;;;;18.59;53.42;99815.66;5046999;28;9004;-74
2023/07/08 04:10:23;;;;;;;;;23.60;21.60;;;;;18.81;52.99;99805.69;5030775;28;8862;-72
2023/07/08 04:12:52;;;;;;;;;63.25;50.75;;;;;18.87;52.56;99815.16;5045429;28;8865;-74
2023/07/08 04:15:25;;;;;;;;;34.75;31.75;;;;;18.94;52.55;99809.44;5047874;28;8976;-72
2023/07/08 04:17:55;;;;;;;;;19.20;19.00;;;;;19.06;52.09;99807.94;5047285;28;8892;-73
2023/07/08 04:20:26;;;;;;;;;20.40;19.40;;;;;18.87;52.35;99809.84;5041247;28;8883;-71
2023/07/08 04:22:54;;;;;;;;;21.20;19.60;;;;;18.92;51.92;99816.66;5027158;28;8840;-75
2023/07/08 04:25:24;;;;;;;;;20.40;19.00;;;;;18.93;51.67;99821.06;5054663;28;8845;-74
2023/07/08 04:27:56;;;;;;;;;19.40;18.40;;;;;18.99;51.62;99822.53;5101218;28;8881;-75
2023/07/08 04:30:26;;;;;;;;;19.60;18.60;;;;;18.86;51.77;99832.09;5107572;28;8856;-72
2023/07/08 04:32:55;;;;;;;;;21.00;19.80;;;;;18.74;52.33;99839.75;5107327;28;8859;-74
2023/07/08 04:35:26;;;;;;;;;11.40;10.00;;;;;18.73;52.37;99845.13;5107851;28;8832;-75
2023/07/08 04:37:55;;;;;;;;;21.20;20.00;;;;;18.28;53.25;99855.28;5091011;27;8866;-74
2023/07/08 04:40:24;;;;;;;;;58.25;45.50;;;;;18.14;54.05;99849.78;5130654;27;8855;-74
2023/07/08 04:42:52;;;;;;;;;28.00;26.20;;;;;18.44;53.08;99850.09;5129379;27;9622;-74
2023/07/08 04:45:21;;;;;;;;;22.60;22.60;;;;;18.70;52.24;99847.94;5126628;27;8862;-73
2023/07/08 04:47:52;;;;;;;;;19.40;18.80;;;;;18.76;51.92;99850.28;5150989;27;8934;-73
2023/07/08 04:50:22;;;;;;;;;20.20;19.00;;;;;18.96;51.45;99846.66;5150755;27;8989;-73
2023/07/08 04:52:52;;;;;;;;;17.80;17.20;;;;;18.91;50.83;99851.34;5150815;27;8866;-73
2023/07/08 04:55:22;;;;;;;;;22.20;18.80;;;;;18.23;52.69;99869.75;5151478;27;8924;-71
2023/07/08 04:57:51;;;;;;;;;17.40;17.40;;;;;18.60;51.75;99868.84;5097185;27;8904;-72
2023/07/08 05:00:22;;;;;;;;;22.00;20.80;;;;;17.71;54.21;99867.72;5149371;27;8912;-71
2023/07/08 05:02:50;;;;;;;;;23.40;20.80;;;;;17.52;55.20;99870.34;5150375;27;8843;-72
2023/07/08 05:05:20;;;;;;;;;21.40;19.80;;;;;17.56;55.05;99866.59;5132542;27;8847;-74
2023/07/08 05:07:49;;;;;;;;;20.40;20.00;;;;;17.11;56.31;99865.00;5136483;27;8841;-71
2023/07/08 05:10:20;;;;;;;;;16.60;16.60;;;;;17.19;55.39;99863.75;5129644;27;8968;-75
2023/07/08 05:12:49;;;;;;;;;22.60;20.60;;;;;17.07;55.56;99852.78;5129841;27;8933;-74
2023/07/08 05:15:19;;;;;;;;;23.80;22.60;;;;;16.79;56.57;99860.09;5129069;27;8910;-75
2023/07/08 05:17:47;;;;;;;;;19.80;19.60;;;;;16.76;56.29;99868.22;5129730;27;8846;-72
2023/07/08 05:20:18;;;;;;;;;21.20;21.20;;;;;16.37;56.91;99870.66;5111348;27;8895;-71
2023/07/08 05:22:47;;;;;;;;;19.20;19.20;;;;;16.34;57.86;99874.31;5129874;27;8897;-73
2023/07/08 05:25:17;;;;;;;;;21.00;18.80;;;;;16.77;57.07;99877.91;5135285;27;8847;-73
2023/07/08 05:27:47;;;;;;;;;20.60;19.20;;;;;16.87;55.70;99883.72;5150224;27;8881;-72
2023/07/08 05:30:18;;;;;;;;;17.20;16.60;;;;;16.86;56.35;99875.81;5149986;27;8843;-72
2023/07/08 05:32:47;;;;;;;;;23.40;22.20;;;;;16.82;56.27;99887.50;5147961;27;8827;-73
2023/07/08 05:35:16;;;;;;;;;24.80;21.80;;;;;16.84;56.67;99886.50;5149913;27;8924;-74
2023/07/08 05:37:46;;;;;;;;;22.00;21.00;;;;;17.32;55.20;99888.00;5150402;27;8828;-74
2023/07/08 05:40:16;;;;;;;;;23.60;22.00;;;;;17.28;55.22;99886.41;5148002;27;8863;-71
2023/07/08 05:42:45;;;;;;;;;18.80;18.80;;;;;17.63;54.60;99881.34;5129638;27;8930;-73
2023/07/08 05:45:15;;;;;;;;;19.20;18.60;;;;;17.57;54.52;99887.81;5129472;27;8873;-72
2023/07/08 05:47:44;;;;;;;;;27.20;24.80;;;;;17.77;53.91;99894.00;5135375;27;8847;-74
2023/07/08 05:50:13;;;;;;;;;23.40;21.80;;;;;17.74;54.44;99888.81;5130564;27;8844;-72
2023/07/08 05:52:41;;;;;;;;;23.60;21.40;;;;;17.62;54.16;99892.91;5149699;27;8863;-72
2023/07/08 05:55:10;;;;;;;;;21.60;20.60;;;;;17.43;54.74;99898.16;5149648;27;8827;-72
2023/07/08 05:57:39;;;;;;;;;22.80;21.80;;;;;17.51;55.01;99897.81;5132306;27;8873;-74
2023/07/08 06:00:10;;;;;;;;;17.80;17.80;;;;;17.46;55.49;99892.72;5128834;27;8945;-73
2023/07/08 06:02:40;;;;;;;;;25.00;24.00;;;;;17.57;55.47;99900.22;5128772;27;8886;-72
2023/07/08 06:05:10;;;;;;;;;22.80;22.40;;;;;17.60;55.60;99889.44;5120028;27;8831;-73
2023/07/08 06:07:39;;;;;;;;;21.80;20.60;;;;;17.70;55.39;99896.09;5131006;27;8854;-72
2023/07/08 06:10:08;;;;;;;;;16.00;16.00;;;;;17.79;54.97;99897.47;5144203;27;8837;-74
2023/07/08 06:12:37;;;;;;;;;23.40;22.40;;;;;18.03;54.58;99897.28;5128693;27;8841;-72
2023/07/08 06:15:08;;;;;;;;;24.40;22.80;;;;;17.74;55.85;99894.13;5129106;27;8825;-76
2023/07/08 06:17:36;;;;;;;;;26.20;21.40;;;;;17.96;55.75;99892.22;5104311;27;8861;-74
2023/07/08 06:20:09;;;;;;;;;21.20;21.20;;;;;18.55;54.67;99887.72;5137936;27;8846;-73
2023/07/08 06:22:37;;;;;;;;;22.20;21.20;;;;;18.89;53.34;99886.09;5138220;27;8813;-73
2023/07/08 06:25:15;;;;;;;;;25.80;23.20;;;;;19.09;53.34;99893.03;5128182;27;8864;-73
2023/07/08 06:27:44;;;;;;;;;22.20;20.60;;;;;18.97;53.39;99885.69;5096553;27;9623;-74
2023/07/08 06:30:13;;;;;;;;;20.80;19.80;;;;;19.00;53.14;99896.19;5104843;27;8833;-72
2023/07/08 06:32:42;;;;;;;;;19.60;19.20;;;;;19.26;53.02;99896.66;5076293;27;8873;-74
2023/07/08 06:35:12;;;;;;;;;20.40;19.60;;;;;19.09;52.55;99906.38;5146138;27;8838;-74
2023/07/08 06:37:41;;;;;;;;;19.80;19.40;;;;;19.18;53.03;99910.38;5149002;27;8848;-72
2023/07/08 06:40:11;;;;;;;;;22.80;21.00;;;;;19.05;53.45;99906.63;5129901;27;8904;-74
2023/07/08 06:42:39;;;;;;;;;17.00;16.80;;;;;19.42;52.24;99897.56;5112561;27;8827;-75
2023/07/08 06:45:16;;;;;;;;;19.00;18.40;;;;;19.90;50.78;99901.28;5129480;27;8896;-76
2023/07/08 06:47:46;;;;;;;;;23.60;22.00;;;;;19.71;50.98;99892.56;5096455;27;8934;-72
2023/07/08 06:50:16;;;;;;;;;19.00;19.00;;;;;20.05;49.03;99894.25;5143093;27;8839;-80
2023/07/08 06:52:45;;;;;;;;;21.00;19.40;;;;;20.34;47.90;99891.78;5153450;27;8878;-77
2023/07/08 06:55:14;;;;;;;;;17.40;16.80;;;;;19.12;50.14;99892.03;5153492;27;8839;-79
2023/07/08 06:57:43;;;;;;;;;19.40;19.20;;;;;20.05;49.52;99891.56;5152377;27;8863;-70
2023/07/08 07:00:15;;;;;;;;;18.00;18.00;;;;;19.57;47.01;99893.28;5113889;27;8888;-72
2023/07/08 07:02:43;;;;;;;;;15.00;14.00;;;;;19.56;48.84;99888.03;5078397;27;8841;-70
2023/07/08 07:05:12;;;;;;;;;17.40;17.40;;;;;19.66;47.61;99892.78;5135760;27;8823;-72
2023/07/08 07:07:42;;;;;;;;;17.40;17.40;;;;;19.24;49.97;99887.88;5099998;27;8982;-70
2023/07/08 07:10:11;;;;;;;;;14.40;14.40;;;;;19.11;48.54;99883.16;5152484;27;8973;-71
2023/07/08 07:12:40;;;;;;;;;20.80;19.20;;;;;19.41;48.84;99877.19;5131866;27;8833;-66
2023/07/08 07:15:10;;;;;;;;;17.40;17.20;;;;;19.53;48.39;99881.03;5131228;27;8833;-70
2023/07/08 07:17:38;;;;;;;;;18.00;17.20;;;;;19.72;47.23;99878.25;5131408;27;9598;-67
2023/07/08 07:20:09;;;;;;;;;16.40;14.00;;;;;19.96;47.55;99877.88;5131288;27;9678;-68
2023/07/08 07:22:38;;;;;;;;;17.20;16.00;;;;;20.42;46.25;99876.19;5094076;27;8901;-68
2023/07/08 07:25:09;;;;;;;;;22.20;20.00;;;;;20.60;45.89;99882.31;5146019;27;8851;-68
2023/07/08 07:27:37;;;;;;;;;19.00;18.60;;;;;20.07;47.96;99883.50;5115657;27;8819;-67
2023/07/08 07:30:10;;;;;;;;;9.40;9.40;;;;;20.66;46.29;99871.25;5141512;27;8841;-68
2023/07/08 07:32:39;;;;;;;;;20.20;20.20;;;;;20.21;46.33;99877.38;5131610;27;8826;-67
2023/07/08 07:35:12;;;;;;;;;18.40;18.20;;;;;19.92;46.59;99877.19;5105675;27;8860;-68
2023/07/08 07:37:42;;;;;;;;;24.00;22.20;;;;;20.13;47.01;99876.97;5129538;27;8845;-69
2023/07/08 07:40:15;;;;;;;;;16.40;16.00;;;;;20.42;44.69;99878.00;5150253;27;8907;-83
2023/07/08 07:42:46;;;;;;;;;19.40;18.60;;;;;20.39;44.70;99879.06;5153245;27;8865;-83
2023/07/08 07:45:15;;;;;;;;;18.20;16.60;;;;;21.23;43.76;99872.41;5134040;27;8870;-81
2023/07/08 07:47:44;;;;;;;;;16.00;15.20;;;;;20.26;43.32;99884.22;5143832;27;8944;-79
2023/07/08 07:50:13;;;;;;;;;15.40;15.40;;;;;19.85;44.86;99878.47;5113360;27;9609;-78
2023/07/08 07:52:42;;;;;;;;;13.40;12.20;;;;;19.88;44.41;99868.50;5113139;27;9745;-77
2023/07/08 07:55:16;;;;;;;;;16.80;16.80;;;;;20.00;44.66;99877.63;5129464;27;8842;-77
2023/07/08 07:57:45;;;;;;;;;15.60;15.40;;;;;20.03;44.49;99865.94;5133447;27;8846;-77
2023/07/08 08:00:15;;;;;;;;;15.20;14.60;;;;;20.52;43.72;99865.00;5133623;27;9737;-78
2023/07/08 08:02:45;;;;;;;;;14.40;14.40;;;;;20.39;42.53;99867.53;5115581;27;8953;-78
2023/07/08 08:05:14;;;;;;;;;11.40;11.40;;;;;20.69;40.55;99864.91;5090996;28;8840;-80
2023/07/08 08:07:43;;;;;;;;;13.20;13.20;;;;;20.59;41.32;99874.38;5098459;28;8845;-78
2023/07/08 08:10:12;;;;;;;;;16.80;16.40;;;;;20.55;41.60;99871.00;5089164;28;8855;-76
2023/07/08 08:12:42;;;;;;;;;15.20;15.00;;;;;20.81;41.49;99871.31;5089568;28;8952;-78
2023/07/08 08:15:22;;;;;;;;;16.80;16.00;;;;;20.51;42.04;99874.81;5089333;28;8848;-69
2023/07/08 08:17:51;;;;;;;;;16.00;15.80;;;;;20.74;41.17;99873.47;5090941;28;8847;-71
2023/07/08 08:20:23;;;;;;;;;13.60;13.60;;;;;20.90;40.88;99878.81;5089339;28;8867;-70
2023/07/08 08:22:53;;;;;;;;;14.40;13.20;;;;;21.08;40.00;99884.03;5089558;28;9728;-70
2023/07/08 08:25:24;;;;;;;;;17.00;17.00;;;;;21.31;39.94;99871.97;5108081;28;8841;-70
2023/07/08 08:27:54;;;;;;;;;15.80;15.40;;;;;21.04;40.22;99865.50;5065756;28;9620;-69
2023/07/08 08:30:23;;;;;;;;;13.00;11.60;;;;;20.56;42.27;99867.41;5089115;28;8871;-69
2023/07/08 08:32:52;;;;;;;;;12.40;11.00;;;;;20.41;41.04;99868.28;5090916;28;9660;-68
2023/07/08 08:35:21;;;;;;;;;14.80;14.00;;;;;20.76;41.10;99866.22;5088919;28;8996;-70
2023/07/08 08:37:49;;;;;;;;;12.60;11.40;;;;;20.93;40.54;99869.78;5098004;28;8993;-70
2023/07/08 08:40:20;;;;;;;;;18.80;18.00;;;;;20.91;39.98;99863.63;5103188;28;8833;-68
2023/07/08 08:42:59;;;;;;;;;19.20;18.80;;;;;21.38;39.43;99857.25;5057173;28;8844;-69
2023/07/08 08:45:33;;;;;;;;;14.20;12.20;;;;;20.72;38.68;99856.69;5083751;28;8872;-71
2023/07/08 08:48:04;;;;;;;;;16.40;14.80;;;;;20.89;39.48;99861.03;5088463;28;8980;-69
2023/07/08 08:50:37;;;;;;;;;15.20;13.00;;;;;20.88;39.93;99857.50;5102553;28;8825;-71
2023/07/08 08:53:12;;;;;;;;;12.20;12.20;;;;;21.12;38.72;99845.47;5102761;28;8859;-72
2023/07/08 08:55:42;;;;;;;;;15.00;15.00;;;;;21.24;39.48;99844.75;5087393;28;8863;-71
2023/07/08 08:58:24;;;;;;;;;14.40;14.40;;;;;21.66;38.48;99835.06;5088321;28;8962;-71
2023/07/08 09:00:56;;;;;;;;;11.00;11.00;;;;;22.20;34.24;99840.53;5091910;28;9609;-71
2023/07/08 09:03:38;;;;;;;;;10.40;10.40;;;;;22.68;32.97;99842.75;5128793;27;8869;-71
2023/07/08 09:06:18;;;;;;;;;9.20;9.20;;;;;23.12;31.77;99840.75;5129749;27;8876;-69
2023/07/08 09:08:48;;;;;;;;;8.00;8.00;;;;;23.41;31.23;99836.00;5133503;27;8853;-72
2023/07/08 09:11:28;;;;;;;;;11.80;11.80;;;;;23.28;32.23;99841.41;5128804;27;8845;-73
2023/07/08 09:13:58;;;;;;;;;9.60;9.60;;;;;22.97;32.80;99838.13;5092308;27;8849;-70
2023/07/08 09:16:39;;;;;;;;;10.80;10.80;;;;;23.50;32.26;99838.06;5137056;27;8843;-70
2023/07/08 09:19:13;;;;;;;;;9.60;9.60;;;;;23.58;31.42;99845.59;5133086;27;8846;-69
2023/07/08 09:21:47;;;;;;;;;10.40;9.40;;;;;23.48;30.07;99850.72;5143778;27;8813;-69
2023/07/08 09:24:22;;;;;;;;;8.20;8.20;;;;;23.65;30.19;99846.03;5139605;27;8866;-69
2023/07/08 09:26:56;;;;;;;;;10.20;10.00;;;;;23.75;30.85;99857.81;5127807;27;8845;-72
2023/07/08 09:29:26;;;;;;;;;9.20;9.20;;;;;23.38;31.32;99852.34;5128624;27;9723;-70
2023/07/08 09:31:56;;;;;;;;;10.00;8.80;;;;;22.76;32.05;99847.59;5128382;27;8958;-69
2023/07/08 09:34:39;;;;;;;;;9.80;9.20;;;;;23.14;31.95;99844.16;5129032;27;9603;-71
2023/07/08 09:37:22;;;;;;;;;8.20;8.20;;;;;23.22;31.83;99851.69;5130108;27;8856;-70
2023/07/08 09:39:53;;;;;;;;;7.00;7.00;;;;;22.54;31.59;99865.13;5128707;27;8891;-69
2023/07/08 09:42:25;;;;;;;;;11.60;11.40;;;;;23.12;31.31;99851.47;5132351;27;8868;-70
2023/07/08 09:44:58;;;;;;;;;9.40;9.40;;;;;23.70;30.87;99860.84;5130984;27;8860;-70
2023/07/08 09:47:32;;;;;;;;;11.20;9.20;;;;;24.06;31.09;99859.16;5137978;27;8835;-70
2023/07/08 09:50:02;;;;;;;;;11.60;11.40;;;;;23.14;31.33;99858.44;5133853;27;8857;-68
2023/07/08 09:52:31;;;;;;;;;11.60;10.00;;;;;23.05;31.96;99855.53;5135191;27;8880;-77
2023/07/08 09:55:01;;;;;;;;;10.60;9.60;;;;;22.86;32.06;99861.25;5127962;27;8884;-71
2023/07/08 09:57:33;;;;;;;;;11.60;11.40;;;;;22.27;32.61;99864.25;5128800;27;8876;-70
2023/07/08 10:00:11;;;;;;;;;10.20;10.00;;;;;22.21;32.95;99858.28;5126599;27;8873;-69
2023/07/08 10:02:44;;;;;;;;;10.40;10.40;;;;;22.37;33.62;99863.56;5128748;27;8909;-71
2023/07/08 10:05:20;;;;;;;;;10.40;9.40;;;;;23.08;32.62;99844.59;5130154;27;8875;-72
2023/07/08 10:07:54;;;;;;;;;10.00;10.00;;;;;23.28;32.06;99857.50;5149152;27;8847;-71
2023/07/08 10:10:29;;;;;;;;;9.60;9.60;;;;;23.77;31.62;99847.81;5149205;27;8873;-76
2023/07/08 10:13:01;;;;;;;;;11.00;11.00;;;;;23.58;32.00;99864.38;5127886;27;9619;-71
2023/07/08 10:15:38;;;;;;;;;12.40;12.40;;;;;23.63;31.84;99851.50;5128089;27;8853;-69
2023/07/08 10:18:15;;;;;;;;;13.60;13.60;;;;;23.58;32.43;99848.28;5129301;27;8845;-73
2023/07/08 10:20:55;;;;;;;;;12.40;11.40;;;;;23.82;32.47;99834.09;5132974;27;9004;-71
2023/07/08 10:23:45;;;;;;;;;10.40;10.40;;;;;24.32;32.73;99838.47;5117578;27;8860;-72
2023/07/08 10:26:25;;;;;;;;;15.40;12.40;;;;;23.96;32.36;99839.28;5101078;27;8953;-71
2023/07/08 10:29:14;;;;;;;;;10.60;10.40;;;;;23.48;32.85;99828.41;5096338;27;8975;-72
2023/07/08 10:31:53;;;;;;;;;8.80;8.80;;;;;23.65;32.46;99846.03;5148842;27;8859;-71
2023/07/08 10:34:37;;;;;;;;;14.40;13.60;;;;;23.50;32.61;99842.56;5134215;27;8829;-71
2023/07/08 10:37:12;;;;;;;;;11.20;10.60;;;;;23.81;32.17;99843.09;5086263;27;9632;-72
2023/07/08 10:40:09;;;;;;;;;10.00;10.00;;;;;24.46;32.06;99829.38;5137720;27;8849;-76
2023/07/08 10:42:50;;;;;;;;;11.80;11.20;;;;;23.60;32.34;99838.28;5135212;27;8826;-76
2023/07/08 10:45:26;;;;;;;;;13.20;11.80;;;;;23.18;33.97;99833.09;5153303;27;8839;-77
2023/07/08 10:48:12;;;;;;;;;11.40;10.80;;;;;23.92;32.63;99832.44;5146824;27;8843;-75
2023/07/08 11:04:07;;;;;;;;;14.00;13.40;;;;;23.90;32.23;99823.63;5090219;27;13505;-71
2023/07/08 11:06:49;;;;;;;;;9.00;9.00;;;;;24.28;32.04;99809.25;5068235;28;8943;-73
2023/07/08 11:09:25;;;;;;;;;11.20;10.40;;;;;24.45;32.19;99805.31;5084870;28;8842;-74
2023/07/08 11:11:58;;;;;;;;;9.60;9.60;;;;;24.89;31.25;99814.56;5084987;28;8869;-71
2023/07/08 11:14:43;;;;;;;;;10.80;10.60;;;;;24.58;31.73;99826.75;5084824;28;8842;-68
2023/07/08 11:17:18;;;;;;;;;12.60;12.60;;;;;25.22;31.08;99826.34;5084832;28;8849;-68
2023/07/08 11:19:58;;;;;;;;;12.80;12.20;;;;;25.58;29.36;99814.53;5083548;28;8863;-69
2023/07/08 11:22:30;;;;;;;;;10.80;10.00;;;;;24.80;30.87;99818.81;5080974;28;8859;-74
2023/07/08 11:25:02;;;;;;;;;9.80;9.80;;;;;25.43;29.85;99810.38;5087730;28;8855;-76
2023/07/08 11:27:36;;;;;;;;;8.80;8.80;;;;;25.67;29.58;99812.97;5086471;28;8858;-74
2023/07/08 11:30:13;;;;;;;;;12.80;12.60;;;;;25.24;30.29;99832.47;5083724;28;8882;-74
2023/07/08 11:32:46;;;;;;;;;9.60;9.60;;;;;25.81;29.79;99810.00;5084362;28;8854;-70
2023/07/08 11:35:22;;;;;;;;;10.60;10.20;;;;;26.37;29.31;99797.44;5083530;28;8881;-71
2023/07/08 11:37:52;;;;;;;;;10.60;9.80;;;;;26.01;30.05;99800.34;5084156;28;8971;-71
2023/07/08 11:40:23;;;;;;;;;10.00;10.00;;;;;26.65;28.26;99796.00;5084091;28;9710;-71
2023/07/08 11:42:54;;;;;;;;;9.00;9.00;;;;;27.01;27.80;99783.03;5081584;28;9018;-72
2023/07/08 11:45:32;;;;;;;;;10.00;10.00;;;;;25.82;28.96;99789.34;5070503;28;8866;-70
2023/07/08 11:48:08;;;;;;;;;12.60;11.80;;;;;26.04;29.48;99781.25;5082956;28;8843;-75
2023/07/08 11:50:42;;;;;;;;;11.20;10.60;;;;;26.13;28.93;99766.13;5076641;28;8926;-72
2023/07/08 11:53:14;;;;;;;;;12.40;10.20;;;;;25.84;28.81;99781.97;5072591;28;9729;-73
2023/07/08 11:55:45;;;;;;;;;10.20;9.40;;;;;26.57;28.53;99766.13;5083861;28;8842;-73
2023/07/08 11:58:22;;;;;;;;;11.00;10.00;;;;;26.77;27.33;99765.28;5083720;28;8854;-71
2023/07/08 12:01:01;;;;;;;;;12.00;11.00;;;;;26.43;27.99;99770.78;5077842;28;8965;-76